Domov               UVHVVR             MKGP            O straneh              
ZDRAVSTVENO VARSTVO RASTLIN
  MREŽA AGROMET. POSTAJ
 ► PROGNOSTIČNA OBVESTILA
AGROMETEOROLOŠKI PODATKI -
ARSO
OBVLADOVANJE TVEGANJ ZARADI
NEUGODNIH VREMENSKIH RAZMER
  ► NARAVNE NESREČE
  ► SUŠA/MOČA
  ► NAMAKANJE
  ► ŽLED (gozdarstvo)
KARTOGRAFSKI PRIKAZI
SPLETNE POVEZAVE
PROJEKTI IN PUBLIKACIJE

AGROMETEOROLOŠKA MREŽA: VREMENSKE POSTAJE IN FENOLOŠKA OPAZOVANJA

Pregled podatkov za lokacijo Radlje ob Dravi, meteorološka postaja 857248

Pregled senzorjev na lokaciji

ID Ime Zadnja
vrednost
Datum
zadnje
spremembe
Tip
senzorja
3912 Temperatura 2 m ( °C) 6,8 °C 23.10.2017 11:00 50YA
3913 Relativna vlaga 2 m (% RH) 96,77 % RH 23.10.2017 10:59 50YA
3914 Omočenost lista (U) 0 U 23.10.2017 11:00 A730WET
3915 Hitrost vetra (km/h) 0,48 km/h 23.10.2017 10:59 566.2S-176 (200km/h)
3916 Padavine 0.2 mm (mm) 0 mm 23.10.2017 11:00 Rain-O-Matic
3917 Smer vetra (°) 327,24 ° 23.10.2017 11:00 566.2S-130

Pregled podatkov zadnjih 24 ur

Zap.
št.
Datum in čas Radlje ob Dravi
Hitrost
vetra
Omočenost
lista
Padavine
0.2
mm
Relativna
vlaga
2
m
Smer
vetra
Temperatura
2
m
0 23.10.2017 10:00 0,48 0 0 96,77 327,24 6,8
1 23.10.2017 09:30 0,47 0 0 97,88 327,25 6,6
2 23.10.2017 09:00 0,52 0 0 99,76 327,24 6,44
3 23.10.2017 08:30 0,47 0 0 100 327,24 6,11
4 23.10.2017 08:00 0,47 0 0 100 327,23 5,88
5 23.10.2017 07:30 0,48 0 0 100 327,23 5,62
6 23.10.2017 07:00 0,47 0 0 100 327,24 5,53
7 23.10.2017 06:30 0,48 0 0 100 327,23 5,54
8 23.10.2017 06:00 0,48 0 0 100 327,24 5,62
9 23.10.2017 05:30 0,47 0 0 100 327,23 5,62
10 23.10.2017 05:00 0,47 0 0 100 327,23 5,71
11 23.10.2017 04:30 0,47 0 0 100 327,24 5,84
12 23.10.2017 04:00 0,47 0 0 100 327,23 5,9
13 23.10.2017 03:30 0,47 0 0 100 327,23 5,92
14 23.10.2017 03:00 0,48 0 0,2 100 327,23 5,92
15 23.10.2017 02:30 0,47 0 0 100 327,23 5,86
16 23.10.2017 02:00 0,47 0 0 100 327,23 5,9
17 23.10.2017 01:30 0,47 0 0 100 327,22 5,9
18 23.10.2017 01:00 0,47 0 0 100 327,23 5,9
19 23.10.2017 00:30 0,47 0 0 100 327,22 5,94
20 23.10.2017 00:00 0,47 0 0 100 327,21 5,99
21 22.10.2017 23:30 0,6 0 0 99,99 313,01 5,98
22 22.10.2017 23:00 0,47 0,2 99,66 18,9 5,98
23 22.10.2017 22:30 0,51 0,8 98,95 18,87 6,1
24 22.10.2017 22:00 0,57 0,8 99,54 309,7 6,43
25 22.10.2017 21:30 0,59 1,2 99,49 6,22 6,75
26 22.10.2017 21:00 0,91 1 99,65 40,12 7,03
27 22.10.2017 20:30 1,23 1 99,31 321,5 7,49
28 22.10.2017 20:00 2,07 2 98,86 30,64 7,97
29 22.10.2017 19:30 0,47 2 100 218,81 8,23
30 22.10.2017 19:00 0,49 1,2 100 117,4 8,29
31 22.10.2017 18:30 0,49 0,8 100 213,81 8,33
32 22.10.2017 18:00 0,47 1,4 100 213,81 8,47
33 22.10.2017 17:30 0,85 0,8 99,97 211,47 8,62
34 22.10.2017 17:00 0,48 0,6 99,13 104,71 8,79
35 22.10.2017 16:30 0,63 0,4 97,44 103,61 9,08
36 22.10.2017 16:00 1,41 0,4 98,79 119,09 9,38
37 22.10.2017 15:30 0,75 1,2 99,96 115,95 9,36
38 22.10.2017 15:00 0,52 1,8 98,96 39,74 9,55
39 22.10.2017 14:30 1,2 0,2 95,68 130,68 10,01
40 22.10.2017 14:00 1,11 0,2 91,72 128,81 10,44
41 22.10.2017 13:30 3,37 0,2 94,2 143,3 10,49
42 22.10.2017 13:00 1,72 0,4 97,84 114,02 10,39
43 22.10.2017 12:30 2,63 0,8 99,77 112,58 9,89
44 22.10.2017 12:00 0,81 2,2 100 184,86 9,27
© 2011 Ministrstvo za kmetijstvo, gozdarstvo in prehrano. Vse pravice pridržane.